Time;durP1;ratioP1;P1;durP2;ratioP2;P2;SDS_P1;SDS_P2;PMS_P1;PMS_P2;Temp;Humidity;BMP_temperature;BMP_pressure;BME280_temperature;BME280_humidity;BME280_pressure;Samples;Min_cycle;Max_cycle;Signal;HPM_P1;HPM_P2
2023/04/29 00:01:04;;;;;;;1999.90;999.90;;;12.20;99.90;;;;;;4976226;28;20180;-75
2023/04/29 00:03:31;;;;;;;1999.90;999.90;;;12.20;99.90;;;;;;4976548;28;20227;-75
2023/04/29 00:05:57;;;;;;;1999.90;999.90;;;12.20;99.90;;;;;;4976547;28;20174;-74
2023/04/29 00:08:23;;;;;;;1999.90;999.90;;;12.10;99.90;;;;;;4976513;28;20518;-75
2023/04/29 00:10:49;;;;;;;1999.90;999.90;;;12.10;99.90;;;;;;4976286;28;20518;-74
2023/04/29 00:13:15;;;;;;;1999.90;999.90;;;12.10;99.90;;;;;;4976015;28;20493;-75
2023/04/29 00:15:41;;;;;;;1999.90;999.90;;;12.00;99.90;;;;;;4976440;28;20415;-75
2023/04/29 00:18:07;;;;;;;1999.90;999.90;;;12.00;99.90;;;;;;4976282;28;20567;-75
2023/04/29 00:20:33;;;;;;;1999.90;999.90;;;12.00;99.90;;;;;;4976240;28;20168;-75
2023/04/29 00:22:59;;;;;;;1999.90;999.90;;;12.00;99.90;;;;;;4975813;28;20431;-75
2023/04/29 00:25:25;;;;;;;1999.90;999.90;;;12.00;99.90;;;;;;4976068;28;20194;-75
2023/04/29 00:27:50;;;;;;;1999.90;999.90;;;11.90;99.90;;;;;;4975946;28;20215;-75
2023/04/29 00:30:16;;;;;;;1999.90;999.90;;;11.90;99.90;;;;;;4976133;28;20820;-75
2023/04/29 00:32:43;;;;;;;1999.90;999.90;;;12.00;99.90;;;;;;4975771;28;20697;-75
2023/04/29 00:35:09;;;;;;;1999.90;999.90;;;11.90;99.90;;;;;;4976238;28;20227;-75
2023/04/29 00:37:36;;;;;;;1999.90;999.90;;;11.80;99.90;;;;;;4976230;28;20429;-74
2023/04/29 00:40:02;;;;;;;1999.90;999.90;;;11.80;99.90;;;;;;4975875;28;20793;-74
2023/04/29 00:42:30;;;;;;;1999.90;999.90;;;11.90;99.90;;;;;;4975504;28;20506;-75
2023/04/29 00:44:56;;;;;;;1999.90;999.90;;;11.90;99.90;;;;;;4975909;28;20845;-75
2023/04/29 00:47:21;;;;;;;1999.90;999.90;;;11.90;99.90;;;;;;4975572;28;20498;-75
2023/04/29 00:49:47;;;;;;;1999.90;999.90;;;11.90;99.90;;;;;;4975783;28;20889;-76
2023/04/29 00:52:14;;;;;;;1999.90;999.90;;;11.90;99.90;;;;;;4975467;28;20413;-75
2023/04/29 00:54:39;;;;;;;1999.90;999.90;;;11.90;99.90;;;;;;4975510;28;20565;-75
2023/04/29 00:57:06;;;;;;;1999.90;999.90;;;11.80;99.90;;;;;;4975686;28;20414;-75
2023/04/29 00:59:32;;;;;;;1999.90;999.90;;;11.90;99.90;;;;;;4975606;28;20175;-75
2023/04/29 01:02:01;;;;;;;1999.90;999.90;;;11.90;99.90;;;;;;4975199;28;20418;-75
2023/04/29 01:04:26;;;;;;;1999.90;999.90;;;11.90;99.90;;;;;;4975345;28;20533;-75
2023/04/29 01:07:13;;;;;;;1999.90;999.90;;;11.70;99.90;;;;;;4975345;28;20521;-75
2023/04/29 01:09:47;;;;;;;1999.90;999.90;;;11.70;99.90;;;;;;4975383;28;20179;-75
2023/04/29 01:12:31;;;;;;;1999.90;999.90;;;11.60;99.90;;;;;;4974897;28;20416;-75
2023/04/29 01:15:05;;;;;;;1999.90;999.90;;;11.60;99.90;;;;;;4975108;28;20456;-74
2023/04/29 01:17:40;;;;;;;1999.90;999.90;;;11.50;99.90;;;;;;4975042;28;20418;-74
2023/04/29 01:20:07;;;;;;;1999.90;999.90;;;11.50;99.90;;;;;;4975082;28;20406;-74
2023/04/29 01:22:33;;;;;;;1999.90;999.90;;;11.40;99.90;;;;;;4974724;28;20553;-74
2023/04/29 01:24:58;;;;;;;1999.90;999.90;;;11.30;99.90;;;;;;4974994;28;20927;-74
2023/04/29 01:27:53;;;;;;;1999.90;999.90;;;11.40;99.90;;;;;;4974821;28;20198;-75
2023/04/29 01:30:39;;;;;;;1999.90;999.90;;;11.30;99.90;;;;;;4974904;28;20621;-74
2023/04/29 01:33:09;;;;;;;1999.90;999.90;;;11.30;99.90;;;;;;4974510;28;20484;-75
2023/04/29 01:35:58;;;;;;;1999.90;999.90;;;11.30;99.90;;;;;;4974769;28;20900;-74
2023/04/29 01:38:38;;;;;;;1999.90;999.90;;;11.30;99.90;;;;;;4974676;28;20477;-75
2023/04/29 01:41:09;;;;;;;1999.90;999.90;;;11.20;99.90;;;;;;4974377;28;20461;-75
2023/04/29 01:43:37;;;;;;;1999.90;999.90;;;11.20;99.90;;;;;;4974568;28;20430;-75
2023/04/29 01:46:07;;;;;;;1999.90;999.90;;;11.20;99.90;;;;;;4974638;28;20418;-75
2023/04/29 01:48:34;;;;;;;1999.90;999.90;;;11.20;99.90;;;;;;4974345;28;20461;-75
2023/04/29 01:51:00;;;;;;;1999.90;999.90;;;11.20;99.90;;;;;;4974187;28;20406;-75
2023/04/29 01:53:26;;;;;;;1999.90;999.90;;;11.20;99.90;;;;;;4974584;28;20429;-75
2023/04/29 01:55:52;;;;;;;1999.90;999.90;;;11.10;99.90;;;;;;4974493;28;20908;-75
2023/04/29 01:58:17;;;;;;;1999.90;999.90;;;11.10;99.90;;;;;;4974684;28;20402;-75
2023/04/29 02:00:43;;;;;;;1999.90;999.90;;;11.10;99.90;;;;;;4974865;28;20176;-75
2023/04/29 02:03:08;;;;;;;1999.90;999.90;;;11.10;99.90;;;;;;4974639;28;20715;-75
2023/04/29 02:05:34;;;;;;;1999.90;999.90;;;11.10;99.90;;;;;;4974245;28;20641;-75
2023/04/29 02:08:01;;;;;;;1999.90;999.90;;;11.00;99.90;;;;;;4974064;28;20209;-75
2023/04/29 02:10:27;;;;;;;1999.90;999.90;;;11.00;99.90;;;;;;4974359;28;20410;-74
2023/04/29 02:12:53;;;;;;;1999.90;999.90;;;11.00;99.90;;;;;;4974234;28;20426;-75
2023/04/29 02:15:19;;;;;;;1999.90;999.90;;;10.90;99.90;;;;;;4974260;28;20438;-75
2023/04/29 02:17:45;;;;;;;1999.90;999.90;;;10.90;99.90;;;;;;4974231;28;20460;-75
2023/04/29 02:20:11;;;;;;;1999.90;999.90;;;10.90;99.90;;;;;;4974329;28;20411;-75
2023/04/29 02:22:38;;;;;;;1999.90;999.90;;;10.90;99.90;;;;;;4973723;28;20422;-75
2023/04/29 02:25:03;;;;;;;1999.90;999.90;;;10.90;99.90;;;;;;4973990;28;20406;-75
2023/04/29 02:27:29;;;;;;;1999.90;999.90;;;10.90;99.90;;;;;;4974083;28;20808;-74
2023/04/29 02:29:55;;;;;;;1999.90;999.90;;;10.90;99.90;;;;;;4974056;28;20472;-74
2023/04/29 02:32:20;;;;;;;1999.90;999.90;;;10.90;99.90;;;;;;4973825;28;20175;-75
2023/04/29 02:34:46;;;;;;;1999.90;999.90;;;10.90;99.90;;;;;;4973658;28;20197;-74
2023/04/29 02:37:11;;;;;;;1999.90;999.90;;;10.90;99.90;;;;;;4973791;28;20205;-74
2023/04/29 02:39:37;;;;;;;1999.90;999.90;;;10.90;99.90;;;;;;4973912;28;20272;-74
2023/04/29 02:42:03;;;;;;;1999.90;999.90;;;10.90;99.90;;;;;;4973492;28;20180;-75
2023/04/29 02:44:30;;;;;;;1999.90;999.90;;;10.90;99.90;;;;;;4973683;28;20201;-74
2023/04/29 02:46:56;;;;;;;1999.90;999.90;;;10.90;99.90;;;;;;4973459;28;20256;-74
2023/04/29 02:49:22;;;;;;;1999.90;999.90;;;10.90;99.90;;;;;;4973786;28;20484;-75
2023/04/29 02:51:48;;;;;;;1999.90;999.90;;;10.90;99.90;;;;;;4973363;28;20406;-74
2023/04/29 02:54:15;;;;;;;1999.90;999.90;;;10.80;99.90;;;;;;4973593;28;20210;-74
2023/04/29 02:56:41;;;;;;;1999.90;999.90;;;10.80;99.90;;;;;;4973733;28;20413;-75
2023/04/29 02:59:07;;;;;;;1999.90;999.90;;;10.70;99.90;;;;;;4973814;28;20445;-74
2023/04/29 03:01:33;;;;;;;1999.90;999.90;;;10.70;99.90;;;;;;4973712;28;20438;-74
2023/04/29 03:03:58;;;;;;;1999.90;999.90;;;10.80;99.90;;;;;;4974150;28;20192;-75
2023/04/29 03:06:24;;;;;;;1999.90;999.90;;;10.60;99.90;;;;;;4974911;28;20521;-75
2023/04/29 03:08:51;;;;;;;1999.90;999.90;;;10.60;99.90;;;;;;4974593;28;20225;-74
2023/04/29 03:11:16;;;;;;;1999.90;999.90;;;10.50;99.90;;;;;;4973727;28;20409;-75
2023/04/29 03:13:42;;;;;;;1999.90;999.90;;;10.60;99.90;;;;;;4973458;28;20457;-74
2023/04/29 03:16:08;;;;;;;1999.90;999.90;;;10.50;99.90;;;;;;4973548;28;20170;-75
2023/04/29 03:18:33;;;;;;;1999.90;999.90;;;10.60;99.90;;;;;;4974554;28;20177;-74
2023/04/29 03:20:59;;;;;;;1999.90;999.90;;;10.50;99.90;;;;;;4977721;28;20177;-74
2023/04/29 03:23:25;;;;;;;1999.90;999.90;;;10.60;99.90;;;;;;4978038;28;20194;-74
2023/04/29 03:25:51;;;;;;;1999.90;999.90;;;10.60;99.90;;;;;;4977702;28;20257;-74
2023/04/29 03:28:17;;;;;;;1999.90;999.90;;;10.60;99.90;;;;;;4978046;28;20500;-75
2023/04/29 03:30:42;;;;;;;1999.90;999.90;;;10.60;99.90;;;;;;4977613;28;20410;-74
2023/04/29 03:33:08;;;;;;;1999.90;999.90;;;10.50;99.90;;;;;;4977265;28;20215;-75
2023/04/29 03:35:34;;;;;;;1999.90;999.90;;;10.60;99.90;;;;;;4977542;28;20553;-74
2023/04/29 03:37:59;;;;;;;1999.90;999.90;;;10.60;99.90;;;;;;4977802;28;20226;-74
2023/04/29 03:40:25;;;;;;;1999.90;999.90;;;10.50;99.90;;;;;;4977667;28;20618;-75
2023/04/29 03:42:50;;;;;;;1999.90;999.90;;;10.60;99.90;;;;;;4977613;28;20178;-74
2023/04/29 03:45:17;;;;;;;1999.90;999.90;;;10.50;99.90;;;;;;4977799;28;20174;-75
2023/04/29 03:47:42;;;;;;;1999.90;999.90;;;10.40;99.90;;;;;;4977226;28;20210;-74
2023/04/29 03:50:08;;;;;;;1999.90;999.90;;;10.40;99.90;;;;;;4977497;28;20406;-75
2023/04/29 03:52:37;;;;;;;1999.90;999.90;;;10.40;99.90;;;;;;4977140;28;20174;-74
2023/04/29 03:55:03;;;;;;;1999.90;999.90;;;10.30;99.90;;;;;;4977639;28;20171;-75
2023/04/29 03:57:29;;;;;;;1999.90;999.90;;;10.30;99.90;;;;;;4976763;28;20413;-74
2023/04/29 03:59:54;;;;;;;1999.90;999.90;;;10.50;99.90;;;;;;4976619;28;20408;-74
2023/04/29 04:02:20;;;;;;;1999.90;999.90;;;10.30;99.90;;;;;;4976308;28;20185;-74
2023/04/29 04:04:45;;;;;;;1999.90;999.90;;;10.00;99.90;;;;;;4976421;28;20194;-74
2023/04/29 04:07:11;;;;;;;1999.90;999.90;;;9.90;99.90;;;;;;4976429;28;20197;-74
2023/04/29 04:09:37;;;;;;;1999.90;999.90;;;9.90;99.90;;;;;;4976399;28;20174;-74
2023/04/29 04:12:03;;;;;;;1999.90;999.90;;;9.80;99.90;;;;;;4976283;28;20200;-74
2023/04/29 04:14:29;;;;;;;1999.90;999.90;;;9.80;99.90;;;;;;4976369;28;20451;-74
2023/04/29 04:16:55;;;;;;;1999.90;999.90;;;9.70;99.90;;;;;;4976346;28;20500;-74
2023/04/29 04:19:20;;;;;;;1999.90;999.90;;;9.70;99.90;;;;;;4976428;28;20926;-74
2023/04/29 04:21:46;;;;;;;1999.90;999.90;;;9.60;99.90;;;;;;4976018;28;20178;-73
2023/04/29 04:24:12;;;;;;;1999.90;999.90;;;9.60;99.90;;;;;;4976322;28;20543;-74
2023/04/29 04:26:37;;;;;;;1999.90;999.90;;;9.50;99.90;;;;;;4976408;28;20410;-74
2023/04/29 04:29:03;;;;;;;1999.90;999.90;;;9.60;99.90;;;;;;4975730;28;20655;-74
2023/04/29 04:31:29;;;;;;;1999.90;999.90;;;9.50;99.90;;;;;;4976173;28;20759;-74
2023/04/29 04:33:56;;;;;;;1999.90;999.90;;;9.60;99.90;;;;;;4976122;28;20960;-74
2023/04/29 04:36:22;;;;;;;1999.90;999.90;;;9.60;99.90;;;;;;4975956;28;20416;-73
2023/04/29 04:38:48;;;;;;;1999.90;999.90;;;9.60;99.90;;;;;;4976144;28;20525;-74
2023/04/29 04:41:13;;;;;;;1999.90;999.90;;;9.60;99.90;;;;;;4975706;28;20181;-74
2023/04/29 04:43:39;;;;;;;1999.90;999.90;;;9.60;99.90;;;;;;4975786;28;20202;-74
2023/04/29 04:46:13;;;;;;;1999.90;999.90;;;9.60;99.90;;;;;;4975786;28;20177;-74
2023/04/29 04:48:38;;;;;;;1999.90;999.90;;;10.00;99.90;;;;;;4976033;28;20628;-74
2023/04/29 04:51:11;;;;;;;1999.90;999.90;;;9.60;99.90;;;;;;4975652;28;20484;-73
2023/04/29 04:53:37;;;;;;;1999.90;999.90;;;9.60;99.90;;;;;;4975787;28;20200;-74
2023/04/29 04:56:03;;;;;;;1999.90;999.90;;;9.60;99.90;;;;;;4975848;28;20777;-74
2023/04/29 04:58:30;;;;;;;1999.90;999.90;;;9.60;99.90;;;;;;4976162;28;20481;-74
2023/04/29 05:00:56;;;;;;;1999.90;999.90;;;9.60;99.90;;;;;;4976021;28;20409;-73
2023/04/29 05:03:22;;;;;;;1999.90;999.90;;;9.60;99.90;;;;;;4976088;28;20484;-74
2023/04/29 05:05:57;;;;;;;1999.90;999.90;;;9.60;99.90;;;;;;4975954;28;20722;-74
2023/04/29 05:08:23;;;;;;;1999.90;999.90;;;9.70;99.90;;;;;;4975545;28;20216;-74
2023/04/29 05:10:49;;;;;;;1999.90;999.90;;;9.70;99.90;;;;;;4975447;28;20409;-74
2023/04/29 05:13:15;;;;;;;1999.90;999.90;;;9.50;99.90;;;;;;4975375;28;20977;-74
2023/04/29 05:15:40;;;;;;;1999.90;999.90;;;9.80;99.90;;;;;;4975378;28;20256;-74
2023/04/29 05:18:06;;;;;;;1999.90;999.90;;;9.70;99.90;;;;;;4975282;28;20181;-74
2023/04/29 05:20:32;;;;;;;1999.90;999.90;;;9.70;99.90;;;;;;4974985;28;20189;-74
2023/04/29 05:22:57;;;;;;;1999.90;999.90;;;9.70;99.90;;;;;;4974722;28;20624;-74
2023/04/29 05:25:23;;;;;;;1999.90;999.90;;;9.70;99.90;;;;;;4975065;28;20701;-73
2023/04/29 05:27:48;;;;;;;1999.90;999.90;;;9.70;99.90;;;;;;4974797;28;20255;-74
2023/04/29 05:30:14;;;;;;;1999.90;999.90;;;9.70;99.90;;;;;;4974911;28;20177;-74
2023/04/29 05:32:40;;;;;;;1999.90;999.90;;;9.80;99.90;;;;;;4974475;28;20767;-74
2023/04/29 05:35:06;;;;;;;1999.90;999.90;;;9.90;99.90;;;;;;4974824;28;20504;-74
2023/04/29 05:37:32;;;;;;;1999.90;999.90;;;9.80;99.90;;;;;;4974768;28;20174;-74
2023/04/29 05:39:57;;;;;;;1999.90;999.90;;;9.90;99.90;;;;;;4974863;28;20895;-74
2023/04/29 05:42:23;;;;;;;1999.90;999.90;;;10.00;99.90;;;;;;4973516;28;20181;-74
2023/04/29 05:44:50;;;;;;;1999.90;999.90;;;9.90;99.90;;;;;;4974503;28;20204;-74
2023/04/29 05:47:15;;;;;;;1999.90;999.90;;;9.90;99.90;;;;;;4974531;28;20218;-74
2023/04/29 05:49:41;;;;;;;1999.90;999.90;;;10.00;99.90;;;;;;4974398;28;20501;-74
2023/04/29 05:52:06;;;;;;;1999.90;999.90;;;10.00;99.90;;;;;;4974210;28;20281;-74
2023/04/29 05:54:32;;;;;;;1999.90;999.90;;;10.00;99.90;;;;;;4974246;28;20243;-74
2023/04/29 05:57:01;;;;;;;1999.90;999.90;;;9.90;99.90;;;;;;4974372;28;20490;-74
2023/04/29 05:59:30;;;;;;;1999.90;999.90;;;9.90;99.90;;;;;;4974331;28;20777;-74
2023/04/29 06:01:59;;;;;;;1999.90;999.90;;;9.90;99.90;;;;;;4974021;28;20465;-74
2023/04/29 06:04:26;;;;;;;1999.90;999.90;;;10.00;99.90;;;;;;4974118;28;20958;-74
2023/04/29 06:06:52;;;;;;;1999.90;999.90;;;10.00;99.90;;;;;;4974068;28;20504;-74
2023/04/29 06:09:21;;;;;;;1999.90;999.90;;;10.00;99.90;;;;;;4974154;28;20477;-74
2023/04/29 06:11:46;;;;;;;1999.90;999.90;;;10.10;99.90;;;;;;4973865;28;20410;-74
2023/04/29 06:14:12;;;;;;;1999.90;999.90;;;10.10;99.90;;;;;;4973980;28;20440;-73
2023/04/29 06:16:39;;;;;;;1999.90;999.90;;;10.20;99.90;;;;;;4974004;28;20202;-74
2023/04/29 06:19:05;;;;;;;1999.90;999.90;;;10.10;99.90;;;;;;4973968;28;20692;-74
2023/04/29 06:21:31;;;;;;;1999.90;999.90;;;10.10;99.90;;;;;;4973674;28;20509;-74
2023/04/29 06:23:57;;;;;;;1999.90;999.90;;;10.10;99.90;;;;;;4973781;28;20332;-74
2023/04/29 06:26:23;;;;;;;1999.90;999.90;;;10.00;99.90;;;;;;4973815;28;20181;-74
2023/04/29 06:28:49;;;;;;;1999.90;999.90;;;10.20;99.90;;;;;;4982796;28;20554;-74
2023/04/29 06:31:15;;;;;;;1999.90;999.90;;;10.30;99.90;;;;;;4992927;28;20424;-73
2023/04/29 06:33:41;;;;;;;1999.90;999.90;;;10.00;99.90;;;;;;4993116;28;20186;-74
2023/04/29 06:36:07;;;;;;;1999.90;999.90;;;10.00;99.90;;;;;;4993160;28;20482;-74
2023/04/29 06:38:33;;;;;;;1999.90;999.90;;;10.10;99.90;;;;;;4993023;28;20422;-74
2023/04/29 06:40:59;;;;;;;1999.90;999.90;;;10.10;99.90;;;;;;4992796;28;20204;-73
2023/04/29 06:43:29;;;;;;;1999.90;999.90;;;10.00;99.90;;;;;;4992899;28;20287;-74
2023/04/29 06:45:55;;;;;;;1999.90;999.90;;;10.10;99.90;;;;;;4992984;28;20774;-73
2023/04/29 06:48:21;;;;;;;1999.90;999.90;;;10.10;99.90;;;;;;4992688;28;20476;-74
2023/04/29 06:50:54;;;;;;;1999.90;999.90;;;10.00;99.90;;;;;;4992922;28;20180;-74
2023/04/29 06:53:20;;;;;;;1999.90;999.90;;;10.00;99.90;;;;;;4992603;28;20437;-74
2023/04/29 06:55:46;;;;;;;1999.90;999.90;;;9.90;99.90;;;;;;4992795;28;20471;-74
2023/04/29 06:58:13;;;;;;;1999.90;999.90;;;10.00;99.90;;;;;;4992849;28;20757;-74
2023/04/29 07:00:39;;;;;;;1999.90;999.90;;;10.00;99.90;;;;;;4992835;28;20442;-73
2023/04/29 07:03:05;;;;;;;1999.90;999.90;;;10.20;99.90;;;;;;4992455;28;20517;-74
2023/04/29 07:05:30;;;;;;;1999.90;999.90;;;10.20;99.90;;;;;;4992719;28;20495;-74
2023/04/29 07:07:56;;;;;;;1999.90;999.90;;;10.20;99.90;;;;;;4992634;28;20204;-73
2023/04/29 07:10:22;;;;;;;1999.90;999.90;;;10.30;99.90;;;;;;4992876;28;20543;-74
2023/04/29 07:12:47;;;;;;;1999.90;999.90;;;10.30;99.90;;;;;;4992480;28;20631;-74
2023/04/29 07:15:13;;;;;;;1999.90;999.90;;;10.30;99.90;;;;;;4993102;28;20256;-74
2023/04/29 07:17:39;;;;;;;1999.90;999.90;;;10.30;99.90;;;;;;4993210;28;20184;-74
2023/04/29 07:20:05;;;;;;;1999.90;999.90;;;10.30;99.90;;;;;;4993017;28;20175;-74
2023/04/29 07:22:31;;;;;;;1999.90;999.90;;;10.30;99.90;;;;;;4992550;28;20599;-74
2023/04/29 07:24:56;;;;;;;1999.90;999.90;;;10.30;99.90;;;;;;4992464;28;20429;-74
2023/04/29 07:27:23;;;;;;;1999.90;999.90;;;10.40;99.90;;;;;;4992689;28;20692;-74
2023/04/29 07:29:49;;;;;;;1999.90;999.90;;;10.60;99.90;;;;;;4992563;28;20202;-74
2023/04/29 07:32:15;;;;;;;1999.90;999.90;;;10.60;99.90;;;;;;4992328;28;20441;-74
2023/04/29 07:34:40;;;;;;;1999.90;999.90;;;10.70;99.90;;;;;;4991920;28;20193;-73
2023/04/29 07:37:06;;;;;;;1999.90;999.90;;;10.90;99.90;;;;;;4990453;28;20471;-74
2023/04/29 07:39:32;;;;;;;1999.90;999.90;;;10.90;99.90;;;;;;4992194;28;20180;-73
2023/04/29 07:41:58;;;;;;;1999.90;999.90;;;10.80;99.90;;;;;;4992013;28;20174;-74
2023/04/29 07:44:24;;;;;;;1999.90;999.90;;;10.80;99.90;;;;;;4991608;28;20674;-74
2023/04/29 07:46:50;;;;;;;1999.90;999.90;;;10.90;99.90;;;;;;4991914;28;20447;-74
2023/04/29 07:49:15;;;;;;;1999.90;999.90;;;10.90;99.90;;;;;;4991979;28;20181;-74
2023/04/29 07:51:41;;;;;;;1999.90;999.90;;;10.80;99.90;;;;;;4991438;28;20220;-74
2023/04/29 07:54:07;;;;;;;1999.90;999.90;;;10.80;99.90;;;;;;4994720;28;20189;-74
2023/04/29 07:56:33;;;;;;;1999.90;999.90;;;10.80;99.90;;;;;;4995853;28;20891;-74
2023/04/29 07:59:00;;;;;;;1999.90;999.90;;;10.70;99.90;;;;;;4993094;28;20424;-74
2023/04/29 08:01:26;;;;;;;1999.90;999.90;;;10.90;99.90;;;;;;4991844;28;20174;-73
2023/04/29 08:03:51;;;;;;;1999.90;999.90;;;10.80;99.90;;;;;;4991882;28;20967;-73
2023/04/29 08:06:19;;;;;;;1999.90;999.90;;;10.80;99.90;;;;;;4995285;28;20420;-74
2023/04/29 08:08:45;;;;;;;1999.90;999.90;;;10.80;99.90;;;;;;4995789;28;20448;-73
2023/04/29 08:11:18;;;;;;;1999.90;999.90;;;10.70;99.90;;;;;;4995424;28;20757;-73
2023/04/29 08:13:43;;;;;;;1999.90;999.90;;;10.80;99.90;;;;;;4995305;28;20667;-74
2023/04/29 08:16:10;;;;;;;1999.90;999.90;;;10.80;99.90;;;;;;4995398;28;20496;-73
2023/04/29 08:18:35;;;;;;;1999.90;999.90;;;10.60;99.90;;;;;;4995316;28;20428;-73
2023/04/29 08:21:01;;;;;;;1999.90;999.90;;;10.60;99.90;;;;;;4994636;28;20417;-73
2023/04/29 08:23:27;;;;;;;1999.90;999.90;;;10.70;99.90;;;;;;4995571;28;20201;-73
2023/04/29 08:25:54;;;;;;;1999.90;999.90;;;10.60;99.90;;;;;;4991004;28;20963;-74
2023/04/29 08:28:24;;;;;;;1999.90;999.90;;;10.60;99.90;;;;;;4976741;28;20206;-73
2023/04/29 08:30:49;;;;;;;1999.90;999.90;;;10.60;99.90;;;;;;4978132;28;20512;-74
2023/04/29 08:33:15;;;;;;;1999.90;999.90;;;10.70;99.90;;;;;;4977921;28;20457;-74
2023/04/29 08:35:41;;;;;;;1999.90;999.90;;;10.80;99.90;;;;;;4977862;28;20249;-73
2023/04/29 08:38:08;;;;;;;1999.90;999.90;;;10.90;99.90;;;;;;4975817;28;20413;-73
2023/04/29 08:40:42;;;;;;;1999.90;999.90;;;10.90;99.90;;;;;;4975608;28;20436;-73
2023/04/29 08:43:09;;;;;;;1999.90;999.90;;;10.90;99.90;;;;;;4974781;28;20479;-73
2023/04/29 08:45:36;;;;;;;1999.90;999.90;;;10.90;99.90;;;;;;4975346;28;20410;-74
2023/04/29 08:48:03;;;;;;;1999.90;999.90;;;10.90;99.90;;;;;;4975227;28;20457;-73
2023/04/29 08:50:29;;;;;;;1999.90;999.90;;;10.80;99.90;;;;;;4975111;28;20460;-74
2023/04/29 08:52:55;;;;;;;1999.90;999.90;;;10.60;99.90;;;;;;4994233;28;20978;-75
2023/04/29 08:55:21;;;;;;;1999.90;999.90;;;10.60;99.90;;;;;;4996757;28;20421;-75
2023/04/29 08:57:49;;;;;;;1999.90;999.90;;;10.60;99.90;;;;;;4995807;28;20495;-74
2023/04/29 09:00:15;;;;;;;1999.90;999.90;;;10.60;99.90;;;;;;4994679;28;20550;-74
2023/04/29 09:02:49;;;;;;;1999.90;999.90;;;10.60;99.90;;;;;;4993308;28;20423;-74
2023/04/29 09:05:15;;;;;;;1999.90;999.90;;;10.70;99.90;;;;;;4990507;28;20835;-75
2023/04/29 09:07:42;;;;;;;1999.90;999.90;;;10.60;99.90;;;;;;4994558;28;20556;-74
2023/04/29 09:10:08;;;;;;;1999.90;999.90;;;10.70;99.90;;;;;;5007811;28;20424;-72
2023/04/29 09:12:35;;;;;;;1999.90;999.90;;;10.60;99.90;;;;;;4989240;28;20945;-73
2023/04/29 09:15:01;;;;;;;1999.90;999.90;;;10.70;99.90;;;;;;4989518;28;20565;-74
2023/04/29 09:17:47;;;;;;;1999.90;999.90;;;10.80;99.90;;;;;;4983217;28;20421;-73
2023/04/29 09:20:19;;;;;;;1999.90;999.90;;;10.90;99.90;;;;;;4993767;28;20444;-76
2023/04/29 09:22:56;;;;;;;1999.90;999.90;;;11.00;99.90;;;;;;4988923;28;20413;-74
2023/04/29 09:25:23;;;;;;;1999.90;999.90;;;11.20;99.90;;;;;;4986523;28;20432;-74
2023/04/29 09:27:49;;;;;;;1999.90;999.90;;;11.50;99.90;;;;;;4989653;28;20453;-74
2023/04/29 09:30:15;;;;;;;1999.90;999.90;;;11.70;99.90;;;;;;4992404;28;20418;-74
2023/04/29 09:32:42;;;;;;;1999.90;999.90;;;11.70;99.90;;;;;;4993083;28;20405;-73
2023/04/29 09:35:26;;;;;;;1999.90;999.90;;;11.90;99.90;;;;;;4993286;28;20966;-73
2023/04/29 09:37:53;;;;;;;1999.90;999.90;;;12.20;99.90;;;;;;4993893;28;20418;-74
2023/04/29 09:40:31;;;;;;;1999.90;999.90;;;12.40;99.90;;;;;;4993460;28;20460;-73
2023/04/29 09:43:00;;;;;;;1999.90;999.90;;;12.50;99.90;;;;;;4985640;28;20528;-73
2023/04/29 09:45:36;;;;;;;1999.90;999.90;;;12.60;99.90;;;;;;4983217;28;20409;-73
2023/04/29 09:48:04;;;;;;;1999.90;999.90;;;12.60;99.90;;;;;;4992550;28;20469;-73
2023/04/29 09:50:31;;;;;;;1999.90;999.90;;;12.60;99.90;;;;;;4993639;28;20411;-73
2023/04/29 09:52:57;;;;;;;1999.90;999.90;;;12.70;99.90;;;;;;4993060;28;20542;-73
2023/04/29 09:55:23;;;;;;;1999.90;999.90;;;12.60;99.90;;;;;;4993159;28;20411;-73
2023/04/29 09:57:48;;;;;;;1999.90;999.90;;;12.40;99.90;;;;;;4993364;28;20425;-73
2023/04/29 10:00:14;;;;;;;1999.90;999.90;;;12.40;99.90;;;;;;4993272;28;20186;-73
2023/04/29 10:02:46;;;;;;;1999.90;999.90;;;12.40;99.90;;;;;;4993195;28;20181;-73
2023/04/29 10:05:13;;;;;;;1999.90;999.90;;;12.30;99.90;;;;;;4992621;28;20252;-73
2023/04/29 10:07:40;;;;;;;1999.90;999.90;;;12.20;99.90;;;;;;4993189;28;20459;-73
2023/04/29 10:10:08;;;;;;;1999.90;999.90;;;12.20;99.90;;;;;;4993197;28;20421;-73
2023/04/29 10:12:39;;;;;;;1999.90;999.90;;;12.30;99.90;;;;;;4992468;28;20410;-73
2023/04/29 10:15:38;;;;;;;1999.90;999.90;;;12.20;99.90;;;;;;4992838;28;20415;-73
2023/04/29 10:18:19;;;;;;;1999.90;999.90;;;12.20;99.90;;;;;;4990089;28;20443;-73
2023/04/29 10:20:47;;;;;;;1999.90;999.90;;;12.20;99.90;;;;;;4987428;28;20407;-73
2023/04/29 10:23:14;;;;;;;1999.90;999.90;;;12.30;99.90;;;;;;4992549;28;20456;-73
2023/04/29 10:25:42;;;;;;;1999.90;999.90;;;12.20;99.90;;;;;;4992334;28;20419;-73
2023/04/29 10:28:15;;;;;;;1999.90;999.90;;;12.20;99.90;;;;;;4992311;28;20531;-73
2023/04/29 10:30:45;;;;;;;1999.90;999.90;;;12.20;99.90;;;;;;4992768;28;20390;-73
2023/04/29 10:33:11;;;;;;;1999.90;999.90;;;12.00;99.90;;;;;;4991916;28;20430;-73
2023/04/29 10:35:37;;;;;;;1999.90;999.90;;;11.90;99.90;;;;;;4992852;28;20402;-73
2023/04/29 10:38:14;;;;;;;1999.90;999.90;;;11.80;99.90;;;;;;4992406;28;20440;-73
2023/04/29 10:40:47;;;;;;;1999.90;999.90;;;11.70;99.90;;;;;;4992309;28;20539;-73
2023/04/29 10:43:14;;;;;;;1999.90;999.90;;;11.70;99.90;;;;;;4992321;28;20998;-73
2023/04/29 10:45:40;;;;;;;1999.90;999.90;;;11.60;99.90;;;;;;4992255;28;20409;-73
2023/04/29 10:48:13;;;;;;;1999.90;999.90;;;11.60;99.90;;;;;;4991927;28;20464;-73
2023/04/29 10:50:47;;;;;;;1999.90;999.90;;;11.60;99.90;;;;;;4993042;28;20181;-73
2023/04/29 10:53:20;;;;;;;1999.90;999.90;;;11.50;99.90;;;;;;4992144;28;20443;-73
2023/04/29 10:55:48;;;;;;;1999.90;999.90;;;11.50;99.90;;;;;;4992151;28;20406;-73
2023/04/29 10:58:42;;;;;;;1999.90;999.90;;;11.50;99.90;;;;;;4992764;28;20503;-73
2023/04/29 11:01:13;;;;;;;1999.90;999.90;;;11.40;99.90;;;;;;4992024;28;20418;-73
2023/04/29 11:04:00;;;;;;;1999.90;999.90;;;11.40;99.90;;;;;;4995984;28;20437;-73
2023/04/29 11:06:40;;;;;;;1999.90;999.90;;;11.30;99.90;;;;;;4998929;28;20405;-73
2023/04/29 11:09:11;;;;;;;1999.90;999.90;;;11.30;99.90;;;;;;4999810;28;20484;-73
2023/04/29 11:11:56;;;;;;;1999.90;999.90;;;11.60;99.90;;;;;;4999696;28;20760;-73
2023/04/29 11:14:31;;;;;;;1999.90;999.90;;;11.30;99.90;;;;;;5000103;28;20437;-73
2023/04/29 11:17:00;;;;;;;1999.90;999.90;;;11.40;99.90;;;;;;4998919;28;20468;-73
2023/04/29 11:19:31;;;;;;;1999.90;999.90;;;11.40;99.90;;;;;;4999123;28;20443;-73
2023/04/29 11:22:32;;;;;;;1999.90;999.90;;;11.40;99.90;;;;;;4998608;28;20840;-73
2023/04/29 11:24:59;;;;;;;1999.90;999.90;;;11.40;99.90;;;;;;4995005;28;20906;-73
2023/04/29 11:27:29;;;;;;;1999.90;999.90;;;11.40;99.90;;;;;;5001451;28;20574;-72
2023/04/29 11:29:59;;;;;;;1999.90;999.90;;;11.60;99.90;;;;;;4994625;28;20485;-73
2023/04/29 11:32:30;;;;;;;1999.90;999.90;;;11.60;99.90;;;;;;4997352;28;20405;-73
2023/04/29 11:35:16;;;;;;;1999.90;999.90;;;11.70;99.90;;;;;;4998077;28;20425;-72
2023/04/29 11:37:44;;;;;;;1999.90;999.90;;;11.80;99.90;;;;;;4999471;28;20447;-74
2023/04/29 11:40:11;;;;;;;1999.90;999.90;;;11.90;99.90;;;;;;4984034;28;20451;-73
2023/04/29 11:42:46;;;;;;;1999.90;999.90;;;11.90;99.90;;;;;;5002506;28;20505;-73
2023/04/29 11:45:14;;;;;;;1999.90;999.90;;;11.90;99.90;;;;;;4997893;28;20435;-73
2023/04/29 11:47:46;;;;;;;1999.90;999.90;;;12.00;99.90;;;;;;5005584;28;20468;-74
2023/04/29 11:52:58;;;;;;;1999.90;999.90;;;11.90;99.90;;;;;;5013545;28;20532;-73
2023/04/29 11:55:24;;;;;;;1999.90;999.90;;;12.30;99.90;;;;;;5014418;28;20449;-75
2023/04/29 11:57:51;;;;;;;1999.90;999.90;;;11.90;99.90;;;;;;5003042;28;20229;-74
2023/04/29 12:00:17;;;;;;;1999.90;999.90;;;11.90;99.90;;;;;;4987407;28;20416;-74
2023/04/29 12:02:44;;;;;;;1999.90;999.90;;;11.80;99.90;;;;;;4990420;28;20415;-72
2023/04/29 12:05:11;;;;;;;1999.90;999.90;;;11.80;99.90;;;;;;4992838;28;20228;-74
2023/04/29 12:07:38;;;;;;;1999.90;999.90;;;11.90;99.90;;;;;;4995151;28;20456;-73